Airport View

Enter AWOS ICAO identifier for current METAR.

ex. KFNL

KHYA 212256Z 20005KT 10SM CLR 21/14 A3016 RMK AO2 SLP214 T02060144

21 Sep 2019 23:23

Phone: 508-862-2601

Other Area AWOS: KFMH - KCQX - KMVY - KPVC

TAF AMD KHYA 212002Z 2120/2218 18006KT P6SM SKC FM221100 21006KT P6SM FEW250